createdAt,value
2019-04-19T00:00:37.509Z,0
2019-04-19T00:01:20.525Z,0
2019-04-19T00:02:04.747Z,0
2019-04-19T00:02:43.537Z,0
2019-04-19T00:03:27.264Z,0
2019-04-19T00:04:04.626Z,0
2019-04-19T00:04:46.870Z,0
2019-04-19T00:05:24.090Z,0
2019-04-19T00:06:04.949Z,0
2019-04-19T00:06:44.924Z,0
2019-04-19T00:07:27.064Z,0
2019-04-19T00:08:19.267Z,0
2019-04-19T00:09:03.673Z,0
2019-04-19T00:09:34.264Z,0
2019-04-19T00:10:19.629Z,0
2019-04-19T00:10:51.821Z,0
2019-04-19T00:11:33.215Z,0
2019-04-19T00:12:21.631Z,0
2019-04-19T00:12:54.868Z,0
2019-04-19T00:13:30.442Z,0
2019-04-19T00:14:10.691Z,0
2019-04-19T00:14:50.628Z,0
2019-04-19T00:15:30.742Z,0
2019-04-19T00:16:11.009Z,0
2019-04-19T00:16:51.364Z,0
2019-04-19T00:17:34.207Z,0
2019-04-19T00:18:15.319Z,0
2019-04-19T00:19:13.904Z,0
2019-04-19T00:19:52.140Z,0
2019-04-19T00:20:31.168Z,0
2019-04-19T00:21:12.091Z,0
2019-04-19T00:21:57.281Z,0
2019-04-19T00:22:31.563Z,0
2019-04-19T00:23:08.316Z,0
2019-04-19T00:23:40.457Z,0
2019-04-19T00:24:16.623Z,0
2019-04-19T00:24:56.579Z,0
2019-04-19T00:25:36.756Z,0
2019-04-19T00:26:17.075Z,0
2019-04-19T00:26:57.475Z,0
2019-04-19T00:27:45.560Z,0
2019-04-19T00:28:24.668Z,0
2019-04-19T00:29:02.375Z,0
2019-04-19T00:29:46.331Z,0
2019-04-19T00:30:32.430Z,0
2019-04-19T00:31:13.967Z,0
2019-04-19T00:31:47.616Z,0
2019-04-19T00:32:34.773Z,0
2019-04-19T00:33:14.285Z,0
2019-04-19T00:33:46.388Z,0
2019-04-19T00:34:23.120Z,0
2019-04-19T00:35:03.343Z,0
2019-04-19T00:35:43.413Z,0
2019-04-19T00:36:23.428Z,0
2019-04-19T00:37:03.709Z,0
2019-04-19T00:37:44.823Z,0
2019-04-19T00:38:38.091Z,0
2019-04-19T00:39:23.496Z,0
2019-04-19T00:39:55.569Z,0
2019-04-19T00:40:38.001Z,0
2019-04-19T00:41:22.732Z,0
2019-04-19T00:42:04.735Z,0
2019-04-19T00:42:43.685Z,0
2019-04-19T00:43:25.060Z,0
2019-04-19T00:44:02.043Z,0
2019-04-19T00:44:45.237Z,0
2019-04-19T00:45:22.439Z,0
2019-04-19T00:46:08.838Z,0
2019-04-19T00:46:42.052Z,0
2019-04-19T00:47:28.117Z,0
2019-04-19T00:48:01.608Z,0
2019-04-19T00:48:45.725Z,0
2019-04-19T00:49:19.816Z,0
2019-04-19T00:50:03.568Z,0
2019-04-19T00:50:46.826Z,0
2019-04-19T00:51:20.505Z,0
2019-04-19T00:52:05.016Z,0
2019-04-19T00:52:49.253Z,0
2019-04-19T00:53:25.071Z,0
2019-04-19T00:54:04.778Z,0
2019-04-19T00:54:45.933Z,0
2019-04-19T00:55:21.256Z,0
2019-04-19T00:56:04.245Z,0
2019-04-19T00:56:46.534Z,0
2019-04-19T00:57:24.165Z,0
2019-04-19T00:58:03.917Z,0
2019-04-19T00:58:37.772Z,0
2019-04-19T00:59:18.131Z,0
2019-04-19T00:59:58.101Z,0
2019-04-19T01:00:39.885Z,0
2019-04-19T01:01:22.550Z,0
2019-04-19T01:02:03.072Z,0
2019-04-19T01:02:41.803Z,0
2019-04-19T01:03:26.270Z,0
2019-04-19T01:03:59.533Z,0
2019-04-19T01:04:41.125Z,0
2019-04-19T01:05:24.137Z,0
2019-04-19T01:06:06.685Z,0
2019-04-19T01:06:46.833Z,0
2019-04-19T01:07:28.196Z,0
2019-04-19T01:08:07.157Z,0
2019-04-19T01:08:54.130Z,0
2019-04-19T01:09:33.255Z,0
2019-04-19T01:10:18.610Z,0
2019-04-19T01:10:52.554Z,0
2019-04-19T01:11:35.675Z,0
2019-04-19T01:12:17.146Z,0
2019-04-19T01:13:01.609Z,0
2019-04-19T01:13:40.991Z,0
2019-04-19T01:14:16.880Z,0
2019-04-19T01:15:00.869Z,0
2019-04-19T01:15:33.350Z,0
2019-04-19T01:16:18.524Z,0
2019-04-19T01:17:01.433Z,0
2019-04-19T01:17:45.758Z,0
2019-04-19T01:18:20.105Z,0
2019-04-19T01:18:55.743Z,0
2019-04-19T01:19:30.004Z,0
2019-04-19T01:20:11.931Z,0
2019-04-19T01:20:50.112Z,0
2019-04-19T01:21:30.265Z,0
2019-04-19T01:22:16.061Z,0
2019-04-19T01:22:58.459Z,0
2019-04-19T01:23:31.291Z,0
2019-04-19T01:24:11.628Z,0
2019-04-19T01:24:52.840Z,0
2019-04-19T01:25:33.632Z,0
2019-04-19T01:26:14.947Z,0
2019-04-19T01:26:55.667Z,0
2019-04-19T01:27:35.749Z,0
2019-04-19T01:28:19.247Z,0
2019-04-19T01:29:00.612Z,0
2019-04-19T01:29:37.963Z,0
2019-04-19T01:30:16.830Z,0
2019-04-19T01:30:56.887Z,0
2019-04-19T01:31:36.034Z,0
2019-04-19T01:32:18.498Z,0
2019-04-19T01:32:59.681Z,0
2019-04-19T01:33:40.811Z,0
2019-04-19T01:34:21.195Z,0
2019-04-19T01:35:03.562Z,0
2019-04-19T01:35:45.092Z,0
2019-04-19T01:36:25.037Z,0
2019-04-19T01:37:03.284Z,0
2019-04-19T01:37:39.613Z,0
2019-04-19T01:38:21.066Z,0
2019-04-19T01:39:17.420Z,0
2019-04-19T01:40:00.385Z,0
2019-04-19T01:40:40.684Z,0
2019-04-19T01:41:16.846Z,0
2019-04-19T01:41:54.640Z,0
2019-04-19T01:42:36.535Z,0
2019-04-19T01:43:23.386Z,0
2019-04-19T01:43:55.887Z,0
2019-04-19T01:44:37.879Z,0
2019-04-19T01:45:17.025Z,0
2019-04-19T01:45:57.929Z,0
2019-04-19T01:46:43.372Z,0
2019-04-19T01:47:27.656Z,0
2019-04-19T01:47:58.643Z,0
2019-04-19T01:48:42.825Z,0
2019-04-19T01:49:17.801Z,0
2019-04-19T01:49:58.703Z,0
2019-04-19T01:50:43.790Z,0
2019-04-19T01:51:19.838Z,0
2019-04-19T01:52:07.614Z,0
2019-04-19T01:52:50.156Z,0
2019-04-19T01:53:24.027Z,0
2019-04-19T01:54:06.508Z,0
2019-04-19T01:54:45.258Z,0
2019-04-19T01:55:18.526Z,0
2019-04-19T01:55:52.270Z,0
2019-04-19T01:56:30.970Z,0
2019-04-19T01:57:14.070Z,0
2019-04-19T01:57:53.894Z,0
2019-04-19T01:58:33.487Z,0
2019-04-19T01:59:13.603Z,0
2019-04-19T01:59:56.842Z,0
2019-04-19T02:00:39.630Z,0
2019-04-19T02:01:19.118Z,0
2019-04-19T02:02:01.391Z,0
2019-04-19T02:02:36.654Z,0
2019-04-19T02:03:15.176Z,0
2019-04-19T02:03:56.946Z,0
2019-04-19T02:04:36.802Z,0
2019-04-19T02:05:19.134Z,0
2019-04-19T02:06:01.791Z,0
2019-04-19T02:06:41.522Z,0
2019-04-19T02:07:22.806Z,0
2019-04-19T02:08:03.401Z,0
2019-04-19T02:08:40.950Z,0
2019-04-19T02:09:27.844Z,0
2019-04-19T02:10:12.907Z,0
2019-04-19T02:10:50.458Z,0
2019-04-19T02:11:30.595Z,0
2019-04-19T02:12:14.365Z,0
2019-04-19T02:12:49.429Z,0
2019-04-19T02:13:28.356Z,0
2019-04-19T02:14:09.909Z,0
2019-04-19T02:14:50.332Z,0
2019-04-19T02:15:30.346Z,0
2019-04-19T02:16:10.094Z,0
2019-04-19T02:16:49.502Z,0
2019-04-19T02:17:27.436Z,0
2019-04-19T02:18:05.195Z,0
2019-04-19T02:18:45.277Z,0
2019-04-19T02:19:28.432Z,0
2019-04-19T02:20:08.612Z,0
2019-04-19T02:20:48.604Z,0
2019-04-19T02:21:30.956Z,0
2019-04-19T02:22:14.201Z,0
2019-04-19T02:22:48.485Z,0
2019-04-19T02:23:28.224Z,0
2019-04-19T02:24:08.741Z,0
2019-04-19T02:24:53.709Z,0
2019-04-19T02:25:32.149Z,0
2019-04-19T02:26:14.452Z,0
2019-04-19T02:26:57.433Z,0
2019-04-19T02:27:37.091Z,0
2019-04-19T02:28:18.050Z,0
2019-04-19T02:28:55.431Z,0
2019-04-19T02:29:35.044Z,0
2019-04-19T02:30:22.160Z,0
2019-04-19T02:31:10.269Z,0
2019-04-19T02:32:00.495Z,0
2019-04-19T02:32:30.774Z,0
2019-04-19T02:33:19.718Z,0
2019-04-19T02:34:03.090Z,0
2019-04-19T02:34:39.012Z,0
2019-04-19T02:35:15.168Z,0
2019-04-19T02:36:07.860Z,0
2019-04-19T02:36:51.737Z,0
2019-04-19T02:37:22.878Z,0
2019-04-19T02:38:03.315Z,0
2019-04-19T02:38:46.112Z,0
2019-04-19T02:39:28.552Z,0
2019-04-19T02:40:04.089Z,0
2019-04-19T02:41:00.782Z,0
2019-04-19T02:41:37.977Z,0
2019-04-19T02:42:15.751Z,0
2019-04-19T02:42:44.139Z,0
2019-04-19T02:43:35.497Z,0
2019-04-19T02:44:10.025Z,0
2019-04-19T02:44:58.618Z,0
2019-04-19T02:45:49.038Z,0
2019-04-19T02:46:22.731Z,0
2019-04-19T02:46:57.629Z,0
2019-04-19T02:49:01.194Z,0
2019-04-19T02:50:08.479Z,0
2019-04-19T02:52:21.028Z,0
2019-04-19T02:53:01.551Z,0
2019-04-19T02:54:16.798Z,0
2019-04-19T02:55:04.541Z,0
2019-04-19T02:55:42.867Z,0
2019-04-19T02:56:23.358Z,0
2019-04-19T02:57:01.857Z,0
2019-04-19T02:58:58.627Z,0
2019-04-19T02:59:56.659Z,0
2019-04-19T03:00:29.729Z,0
2019-04-19T03:01:02.158Z,0
2019-04-19T03:01:44.121Z,0
2019-04-19T03:03:30.671Z,0
2019-04-19T03:04:36.096Z,0
2019-04-19T03:05:18.461Z,0
2019-04-19T03:05:36.366Z,0
2019-04-19T03:06:13.094Z,0
2019-04-19T03:06:45.297Z,0
2019-04-19T03:07:17.646Z,0
2019-04-19T03:07:57.897Z,0
2019-04-19T03:08:39.333Z,0
2019-04-19T03:09:19.986Z,0
2019-04-19T03:10:00.000Z,0
2019-04-19T03:10:53.401Z,0
2019-04-19T03:11:34.972Z,0
2019-04-19T03:12:16.429Z,0
2019-04-19T03:12:58.403Z,0
2019-04-19T03:13:35.957Z,0
2019-04-19T03:14:11.751Z,0
2019-04-19T03:14:55.983Z,0
2019-04-19T03:15:43.847Z,0
2019-04-19T03:16:25.059Z,0
2019-04-19T03:17:03.605Z,0
2019-04-19T03:17:38.436Z,0
2019-04-19T03:19:00.628Z,0
2019-04-19T03:19:43.742Z,0
2019-04-19T03:20:21.287Z,0
2019-04-19T03:20:57.182Z,0
2019-04-19T03:21:41.610Z,0
2019-04-19T03:22:22.701Z,0
2019-04-19T03:23:02.802Z,0
2019-04-19T03:23:36.313Z,0
2019-04-19T03:24:18.585Z,0
2019-04-19T03:25:06.044Z,0
2019-04-19T03:25:40.136Z,0
2019-04-19T03:26:25.049Z,0
2019-04-19T03:26:59.942Z,0
2019-04-19T03:27:42.798Z,0
2019-04-19T03:28:21.401Z,0
2019-04-19T03:28:54.489Z,0
2019-04-19T03:29:38.755Z,0
2019-04-19T03:30:29.142Z,0
2019-04-19T03:31:22.615Z,0
2019-04-19T03:32:09.534Z,0
2019-04-19T03:34:02.576Z,0
2019-04-19T03:34:50.171Z,0
2019-04-19T03:35:06.243Z,0
2019-04-19T03:35:59.293Z,0
2019-04-19T03:36:30.884Z,0
2019-04-19T03:37:14.141Z,0
2019-04-19T03:37:54.581Z,0
2019-04-19T03:38:33.511Z,0
2019-04-19T03:39:17.622Z,0
2019-04-19T03:40:05.862Z,0
2019-04-19T03:40:34.416Z,0
2019-04-19T03:41:18.306Z,0
2019-04-19T03:42:00.863Z,0
2019-04-19T03:42:40.385Z,0
2019-04-19T03:43:25.115Z,0
2019-04-19T03:43:56.469Z,0
2019-04-19T03:44:35.266Z,0
2019-04-19T03:45:17.282Z,0
2019-04-19T03:46:01.576Z,0
2019-04-19T03:46:45.687Z,0
2019-04-19T03:47:20.783Z,0
2019-04-19T03:48:04.202Z,0
2019-04-19T03:48:43.537Z,0
2019-04-19T03:49:30.151Z,0
2019-04-19T03:50:02.880Z,0
2019-04-19T03:50:41.093Z,0
2019-04-19T03:51:23.185Z,0
2019-04-19T03:52:42.343Z,0
2019-04-19T03:53:30.704Z,0
2019-04-19T03:54:05.524Z,0
2019-04-19T03:54:38.584Z,0
2019-04-19T03:55:23.751Z,0
2019-04-19T03:56:09.165Z,0
2019-04-19T03:56:43.474Z,0
2019-04-19T03:57:22.872Z,0
2019-04-19T03:57:57.835Z,4
2019-04-19T03:58:30.606Z,0
2019-04-19T03:59:09.819Z,0
2019-04-19T03:59:50.241Z,0
2019-04-19T04:00:30.660Z,4
2019-04-19T04:01:11.082Z,4
2019-04-19T04:01:55.040Z,0
2019-04-19T04:02:36.718Z,4
2019-04-19T04:03:19.425Z,4
2019-04-19T04:04:00.352Z,0
2019-04-19T04:04:35.155Z,4
2019-04-19T04:05:16.127Z,0
2019-04-19T04:05:55.268Z,4
2019-04-19T04:06:37.778Z,4
2019-04-19T04:07:20.743Z,4
2019-04-19T04:08:02.131Z,4
2019-04-19T04:08:43.801Z,8
2019-04-19T04:09:16.206Z,8
2019-04-19T04:09:58.974Z,8
2019-04-19T04:10:39.491Z,8
2019-04-19T04:11:20.028Z,8
2019-04-19T04:12:06.937Z,8
2019-04-19T04:12:49.208Z,12
2019-04-19T04:13:30.248Z,8
2019-04-19T04:14:11.971Z,12
2019-04-19T04:14:52.478Z,16
2019-04-19T04:15:36.856Z,16
2019-04-19T04:16:11.339Z,16
2019-04-19T04:16:45.546Z,20
2019-04-19T04:17:20.778Z,20
2019-04-19T04:18:01.144Z,24
2019-04-19T04:18:42.721Z,28
2019-04-19T04:19:22.722Z,32
2019-04-19T04:20:03.197Z,32
2019-04-19T04:20:47.515Z,32
2019-04-19T04:21:28.195Z,36
2019-04-19T04:22:07.339Z,40
2019-04-19T04:22:46.493Z,44
2019-04-19T04:23:30.426Z,44
2019-04-19T04:24:15.917Z,48
2019-04-19T04:24:55.868Z,52
2019-04-19T04:25:30.063Z,56
2019-04-19T04:26:11.402Z,64
2019-04-19T04:26:56.773Z,68
2019-04-19T04:27:39.750Z,72
2019-04-19T05:07:14.995Z,2440
2019-04-19T05:08:02.924Z,2572
2019-04-19T05:08:38.755Z,2624
2019-04-19T05:09:22.414Z,2892
2019-04-19T05:09:57.889Z,2952
2019-04-19T05:10:35.228Z,3080
2019-04-19T05:11:19.974Z,3336
2019-04-19T05:12:06.495Z,3504
2019-04-19T05:12:58.755Z,3772
2019-04-19T05:13:31.415Z,3852
2019-04-19T05:14:00.181Z,3976
2019-04-19T05:14:40.059Z,4168
2019-04-19T05:15:22.177Z,4264
2019-04-19T05:16:03.413Z,4776
2019-04-19T05:16:44.171Z,4928
2019-04-19T05:17:31.997Z,5184
2019-04-19T05:18:11.652Z,5428
2019-04-19T05:18:44.668Z,5568
2019-04-19T05:19:22.174Z,5596
2019-04-19T05:20:09.015Z,6184
2019-04-19T05:20:40.806Z,6308
2019-04-19T05:21:27.036Z,6412
2019-04-19T05:22:04.354Z,6512
2019-04-19T05:22:39.887Z,6520
2019-04-19T05:23:25.893Z,6692
2019-04-19T05:24:08.650Z,7460
2019-04-19T05:24:56.239Z,6784
2019-04-19T05:25:35.617Z,7440
2019-04-19T05:26:22.865Z,7608
2019-04-19T05:27:08.741Z,7956
2019-04-19T05:27:32.673Z,8376
2019-04-19T05:28:12.235Z,8108
2019-04-19T05:28:46.262Z,8708
2019-04-19T05:29:22.613Z,8552
2019-04-19T05:29:55.899Z,8284
2019-04-19T05:30:42.634Z,8560
2019-04-19T05:31:22.452Z,9148
2019-04-19T05:32:03.802Z,9112
2019-04-19T05:32:38.000Z,10036
2019-04-19T05:33:22.598Z,10116
2019-04-19T05:34:14.559Z,10676
2019-04-19T05:34:50.934Z,10720
2019-04-19T05:35:29.447Z,11552
2019-04-19T05:36:17.616Z,11392
2019-04-19T05:36:57.197Z,11392
2019-04-19T05:37:38.045Z,11360
2019-04-19T05:38:14.714Z,11488
2019-04-19T05:39:02.497Z,12384
2019-04-19T05:39:41.089Z,12672
2019-04-19T05:40:18.822Z,13024
2019-04-19T05:40:53.116Z,13152
2019-04-19T05:41:34.848Z,13152
2019-04-19T05:42:12.817Z,13824
2019-04-19T05:42:56.353Z,14112
2019-04-19T05:43:56.737Z,13760
2019-04-19T05:44:29.488Z,13952
2019-04-19T05:45:13.940Z,14688
2019-04-19T05:45:51.368Z,15488
2019-04-19T05:46:27.956Z,15680
2019-04-19T05:47:04.405Z,15680
2019-04-19T05:47:36.859Z,15872
2019-04-19T05:48:19.670Z,16096
2019-04-19T05:48:55.421Z,16832
2019-04-19T05:49:45.075Z,16928
2019-04-19T05:50:29.945Z,17728
2019-04-19T05:51:13.796Z,17312
2019-04-19T05:51:47.106Z,17664
2019-04-19T05:52:28.458Z,18112
2019-04-19T05:53:03.702Z,18496
2019-04-19T05:53:36.499Z,18688
2019-04-19T05:54:13.297Z,18688
2019-04-19T05:54:51.509Z,19392
2019-04-19T05:55:31.031Z,18368
2019-04-19T05:56:11.628Z,19360
2019-04-19T05:56:57.133Z,19904
2019-04-19T05:57:49.811Z,19968
2019-04-19T05:58:21.030Z,20032
2019-04-19T05:59:05.691Z,20128
2019-04-19T05:59:47.218Z,20640
2019-04-19T06:00:29.110Z,20448
2019-04-19T06:01:08.767Z,20960
2019-04-19T06:01:54.720Z,21184
2019-04-19T06:02:28.220Z,21632
2019-04-19T06:03:08.893Z,21344
2019-04-19T06:03:50.063Z,20864
2019-04-19T06:04:36.637Z,21056
2019-04-19T06:05:25.166Z,21280
2019-04-19T06:06:06.862Z,22368
2019-04-19T06:06:41.914Z,22528
2019-04-19T06:07:16.853Z,23424
2019-04-19T06:07:53.711Z,24000
2019-04-19T06:08:27.690Z,24384
2019-04-19T06:09:02.445Z,25504
2019-04-19T06:09:43.097Z,25472
2019-04-19T06:10:25.355Z,25888
2019-04-19T06:11:06.043Z,25440
2019-04-19T06:11:44.966Z,25440
2019-04-19T06:12:28.537Z,25120
2019-04-19T06:13:09.454Z,26912
2019-04-19T06:13:52.332Z,27648
2019-04-19T06:14:50.400Z,27520
2019-04-19T06:15:21.579Z,27904
2019-04-19T06:16:05.502Z,27968
2019-04-19T06:16:42.564Z,28704
2019-04-19T06:17:24.774Z,28128
2019-04-19T06:18:04.981Z,28128
2019-04-19T06:18:38.623Z,28352
2019-04-19T06:19:27.443Z,28576
2019-04-19T06:20:07.332Z,28896
2019-04-19T06:20:44.296Z,28768
2019-04-19T06:21:27.220Z,29120
2019-04-19T06:22:04.342Z,30624
2019-04-19T06:22:51.381Z,31968
2019-04-19T06:23:27.139Z,34176
2019-04-19T06:24:11.471Z,34112
2019-04-19T06:24:48.136Z,33472
2019-04-19T06:25:32.663Z,32608
2019-04-19T06:26:39.604Z,30720
2019-04-19T06:27:00.422Z,29984
2019-04-19T06:27:43.238Z,28960
2019-04-19T06:28:15.281Z,28032
2019-04-19T06:29:01.035Z,26240
2019-04-19T06:29:37.861Z,24736
2019-04-19T06:30:14.566Z,22912
2019-04-19T06:30:50.161Z,21888
2019-04-19T06:31:45.964Z,20928
2019-04-19T06:32:20.568Z,19584
2019-04-19T06:32:55.950Z,19360
2019-04-19T06:33:37.306Z,18944
2019-04-19T06:34:19.564Z,18752
2019-04-19T06:34:53.526Z,18624
2019-04-19T06:35:29.265Z,18688
2019-04-19T06:36:04.416Z,18656
2019-04-19T06:36:40.170Z,18400
2019-04-19T06:37:24.688Z,18304
2019-04-19T06:38:01.350Z,18176
2019-04-19T06:38:42.225Z,17856
2019-04-19T06:39:22.573Z,17920
2019-04-19T06:40:12.501Z,18496
2019-04-19T06:40:48.918Z,19040
2019-04-19T06:41:25.400Z,19008
2019-04-19T06:42:07.588Z,18528
2019-04-19T06:42:52.481Z,18432
2019-04-19T06:43:38.428Z,18272
2019-04-19T06:44:15.482Z,18976
2019-04-19T06:45:07.118Z,18432
2019-04-19T06:45:39.861Z,17824
2019-04-19T06:46:19.796Z,17536
2019-04-19T06:47:00.436Z,17792
2019-04-19T06:47:34.180Z,17856
2019-04-19T06:48:14.196Z,17472
2019-04-19T06:48:53.982Z,17696
2019-04-19T06:49:31.022Z,17568
2019-04-19T06:50:08.906Z,17664
2019-04-19T06:50:53.896Z,17728
2019-04-19T06:51:37.625Z,17600
2019-04-19T06:52:16.410Z,16832
2019-04-19T06:52:50.944Z,15872
2019-04-19T06:53:39.857Z,15104
2019-04-19T06:54:13.621Z,14912
2019-04-19T06:54:51.838Z,14848
2019-04-19T06:55:36.112Z,14784
2019-04-19T06:56:19.825Z,14432
2019-04-19T06:57:03.150Z,14304
2019-04-19T06:57:39.196Z,14400
2019-04-19T06:58:19.323Z,14560
2019-04-19T06:59:04.629Z,14496
2019-04-19T06:59:47.405Z,14816
2019-04-19T07:00:25.813Z,15040
2019-04-19T07:01:07.777Z,15008
2019-04-19T07:01:43.543Z,15008
2019-04-19T07:02:16.476Z,15168
2019-04-19T07:02:56.904Z,15328
2019-04-19T07:03:38.502Z,15168
2019-04-19T07:04:18.926Z,14944
2019-04-19T07:05:15.070Z,14284
2019-04-19T07:05:49.173Z,13996
2019-04-19T07:06:31.985Z,13448
2019-04-19T07:07:14.615Z,12732
2019-04-19T07:08:02.144Z,12516
2019-04-19T07:09:26.314Z,11900
2019-04-19T07:10:24.695Z,11392
2019-04-19T07:11:00.078Z,11136
2019-04-19T07:11:19.620Z,11200
2019-04-19T07:12:01.687Z,11388
2019-04-19T07:12:39.894Z,11300
2019-04-19T07:13:17.065Z,11124
2019-04-19T07:13:52.992Z,10868
2019-04-19T07:14:29.144Z,11008
2019-04-19T07:16:07.212Z,11024
2019-04-19T07:16:43.883Z,10676
2019-04-19T07:17:24.853Z,10404
2019-04-19T07:17:56.764Z,10300
2019-04-19T07:18:39.068Z,10512
2019-04-19T07:19:24.263Z,10508
2019-04-19T07:20:03.049Z,10528
2019-04-19T07:20:42.163Z,10516
2019-04-19T07:21:27.614Z,10064
2019-04-19T07:22:04.721Z,9272
2019-04-19T07:22:46.262Z,7844
2019-04-19T07:23:32.001Z,6952
2019-04-19T07:24:16.030Z,6360
2019-04-19T07:24:49.383Z,6032
2019-04-19T07:25:36.115Z,5668
2019-04-19T07:26:14.823Z,5420
2019-04-19T07:26:52.063Z,5224
2019-04-19T07:27:26.889Z,5128
2019-04-19T07:28:03.324Z,5016
2019-04-19T07:28:36.565Z,4904
2019-04-19T07:29:14.669Z,4816
2019-04-19T07:29:58.409Z,4712
2019-04-19T07:30:34.994Z,4716
2019-04-19T07:31:16.817Z,4700
2019-04-19T07:31:55.775Z,4724
2019-04-19T07:32:41.521Z,4736
2019-04-19T07:33:23.368Z,4736
2019-04-19T07:34:08.631Z,4664
2019-04-19T07:34:51.792Z,4596
2019-04-19T07:35:39.708Z,4452
2019-04-19T07:36:16.767Z,4312
2019-04-19T07:36:57.160Z,4200
2019-04-19T07:37:34.736Z,4104
2019-04-19T07:38:20.907Z,4012
2019-04-19T07:39:33.511Z,3836
2019-04-19T07:40:17.333Z,3764
2019-04-19T07:41:00.003Z,3688
2019-04-19T07:41:37.472Z,3580
2019-04-19T07:42:22.015Z,3496
2019-04-19T07:43:00.136Z,3456
2019-04-19T07:43:38.350Z,3408
2019-04-19T07:44:17.125Z,3360
2019-04-19T07:44:47.734Z,3320
2019-04-19T07:45:28.546Z,3272
2019-04-19T07:46:19.162Z,3232
2019-04-19T07:47:00.784Z,3196
2019-04-19T07:47:33.738Z,3140
2019-04-19T07:48:10.906Z,3112
2019-04-19T07:48:47.045Z,3084
2019-04-19T07:49:27.431Z,3048
2019-04-19T07:50:14.186Z,3028
2019-04-19T07:50:55.487Z,2984
2019-04-19T07:51:32.247Z,2944
2019-04-19T07:52:16.063Z,2908
2019-04-19T07:52:55.314Z,2864
2019-04-19T07:53:35.110Z,2824
2019-04-19T07:54:15.522Z,2796
2019-04-19T07:54:54.818Z,2792
2019-04-19T07:55:38.282Z,2748
2019-04-19T07:56:21.044Z,2716
2019-04-19T07:57:09.713Z,2680
2019-04-19T07:58:01.600Z,2640
2019-04-19T07:58:50.104Z,2600
2019-04-19T07:59:59.147Z,2576
2019-04-19T08:00:40.348Z,2564
2019-04-19T08:01:22.185Z,2540
2019-04-19T08:02:12.660Z,2520
2019-04-19T08:02:49.415Z,2500
2019-04-19T08:03:35.598Z,2488
2019-04-19T08:05:59.114Z,2428
2019-04-19T08:06:48.535Z,2416
2019-04-19T08:07:27.294Z,2400
2019-04-19T08:08:06.386Z,2388
2019-04-19T08:09:23.544Z,2372
2019-04-19T08:10:03.277Z,2352
2019-04-19T08:11:35.497Z,2332
2019-04-19T08:12:06.935Z,2320
2019-04-19T08:12:41.957Z,2316
2019-04-19T08:13:48.322Z,2304
2019-04-19T08:14:07.365Z,2296
2019-04-19T08:15:04.150Z,2284
2019-04-19T08:15:25.520Z,2280
2019-04-19T08:16:17.844Z,2272
2019-04-19T08:18:12.440Z,2244
2019-04-19T08:28:08.426Z,2176
2019-04-19T08:28:43.048Z,2164
2019-04-19T08:29:27.398Z,2172
2019-04-19T08:29:59.901Z,2172
2019-04-19T08:30:42.611Z,2176
2019-04-19T08:31:16.280Z,2164
2019-04-19T08:31:56.084Z,2164
2019-04-19T08:32:36.490Z,2148
2019-04-19T08:33:18.939Z,2152
2019-04-19T08:33:58.285Z,2144
2019-04-19T08:34:39.445Z,2148
2019-04-19T08:35:20.288Z,2140
2019-04-19T08:36:03.304Z,2144
2019-04-19T08:36:44.198Z,2140
2019-04-19T08:37:29.550Z,2132
2019-04-19T08:38:06.850Z,2136
2019-04-19T08:38:56.931Z,2116
2019-04-19T08:39:40.728Z,2120
2019-04-19T08:40:19.817Z,2128
2019-04-19T08:40:56.983Z,2124
2019-04-19T08:41:53.154Z,2116
2019-04-19T08:42:20.300Z,2120
2019-04-19T08:42:59.626Z,2100
2019-04-19T08:43:41.401Z,2096
2019-04-19T08:44:17.876Z,2096
2019-04-19T08:44:53.487Z,2084
2019-04-19T08:45:27.534Z,2088
2019-04-19T08:46:07.079Z,2080
2019-04-19T08:46:47.156Z,2072
2019-04-19T08:47:34.731Z,2068
2019-04-19T08:48:15.282Z,2060
2019-04-19T08:48:54.090Z,2060
2019-04-19T08:49:35.067Z,2060
2019-04-19T08:50:12.123Z,2060
2019-04-19T08:50:51.850Z,2052
2019-04-19T08:51:33.315Z,2048
2019-04-19T08:52:15.849Z,2044
2019-04-19T08:52:58.010Z,2036
2019-04-19T08:53:45.841Z,2036
2019-04-19T08:54:36.638Z,2032
2019-04-19T08:55:13.704Z,2032
2019-04-19T08:55:48.702Z,2024
2019-04-19T08:56:26.202Z,2024
2019-04-19T08:57:02.771Z,2020
2019-04-19T08:57:36.425Z,2016
2019-04-19T08:58:32.121Z,2008
2019-04-19T08:59:21.081Z,2004
2019-04-19T08:59:58.963Z,2004
2019-04-19T09:00:44.750Z,1996
2019-04-19T09:01:18.526Z,1992
2019-04-19T09:02:00.204Z,1988
2019-04-19T09:02:33.973Z,1988
2019-04-19T09:03:10.389Z,1984
2019-04-19T09:03:56.827Z,1976
2019-04-19T09:04:39.500Z,1968
2019-04-19T09:05:18.238Z,1968
2019-04-19T09:06:10.632Z,1960
2019-04-19T09:07:29.468Z,1956
2019-04-19T09:07:42.898Z,1948
2019-04-19T09:07:59.089Z,1944
2019-04-19T09:08:36.912Z,1940
2019-04-19T09:09:23.483Z,1936
2019-04-19T09:10:17.295Z,1936
2019-04-19T09:10:51.863Z,1932
2019-04-19T09:11:20.625Z,1924
2019-04-19T09:12:01.304Z,1928
2019-04-19T09:12:34.171Z,1920
2019-04-19T09:13:33.516Z,1924
2019-04-19T09:14:04.671Z,1916
2019-04-19T09:14:45.435Z,1916
2019-04-19T09:15:23.570Z,1912
2019-04-19T09:16:06.625Z,1912
2019-04-19T09:16:47.567Z,1900
2019-04-19T09:18:00.795Z,1896
2019-04-19T09:18:24.715Z,1896
2019-04-19T09:18:55.551Z,1896
2019-04-19T09:19:43.413Z,1888
2019-04-19T09:20:24.645Z,1888
2019-04-19T09:20:50.310Z,1892
2019-04-19T09:21:27.236Z,1880
2019-04-19T09:22:10.522Z,1868
2019-04-19T09:22:44.804Z,1864
2019-04-19T09:23:26.916Z,1864
2019-04-19T09:24:02.749Z,1864
2019-04-19T09:24:47.706Z,1856
2019-04-19T09:25:28.504Z,1852
2019-04-19T09:26:08.860Z,1852
2019-04-19T09:26:52.648Z,1852
2019-04-19T09:27:41.550Z,1832
2019-04-19T09:28:24.587Z,1828
2019-04-19T09:28:59.909Z,1824
2019-04-19T09:29:39.708Z,1820
2019-04-19T09:30:21.390Z,1836
2019-04-19T09:30:54.532Z,1828
2019-04-19T09:31:31.717Z,1816
2019-04-19T09:32:08.113Z,1820
2019-04-19T09:32:42.135Z,1804
2019-04-19T09:33:27.789Z,1804
2019-04-19T09:34:08.920Z,1796
2019-04-19T09:34:49.453Z,1792
2019-04-19T09:35:24.071Z,1792
2019-04-19T09:36:09.174Z,1796
2019-04-19T09:36:53.362Z,1792
2019-04-19T09:37:41.493Z,1784
2019-04-19T09:38:15.725Z,1780
2019-04-19T09:39:00.488Z,1780
2019-04-19T09:39:41.093Z,1780
2019-04-19T09:40:12.088Z,1780
2019-04-19T09:40:52.147Z,1768
2019-04-19T09:41:33.583Z,1768
2019-04-19T09:42:15.476Z,1760
2019-04-19T09:42:56.291Z,1764
2019-04-19T09:43:41.074Z,1760
2019-04-19T09:44:18.172Z,1752
2019-04-19T09:44:54.073Z,1748
2019-04-19T09:45:30.414Z,1740
2019-04-19T09:46:10.856Z,1744
2019-04-19T09:46:51.266Z,1740
2019-04-19T09:47:31.724Z,1740
2019-04-19T09:48:31.452Z,1744
2019-04-19T09:49:08.351Z,1736
2019-04-19T09:49:47.513Z,1740
2019-04-19T09:50:32.415Z,1732
2019-04-19T09:51:11.332Z,1732
2019-04-19T09:51:50.793Z,1728
2019-04-19T09:52:41.515Z,1724
2019-04-19T09:53:25.704Z,1720
2019-04-19T09:54:02.498Z,1716
2019-04-19T09:54:45.562Z,1716
2019-04-19T09:55:21.160Z,1716
2019-04-19T09:56:01.377Z,1712
2019-04-19T09:56:35.679Z,1712
2019-04-19T09:57:23.601Z,1712
2019-04-19T09:58:05.658Z,1704
2019-04-19T09:58:38.373Z,1700
2019-04-19T09:59:14.044Z,1696
2019-04-19T09:59:46.438Z,1696
2019-04-19T10:00:28.859Z,1688
2019-04-19T10:01:06.514Z,1684
2019-04-19T10:01:52.151Z,1684
2019-04-19T10:02:33.447Z,1680
2019-04-19T10:03:18.655Z,1676
2019-04-19T10:03:52.601Z,1668
2019-04-19T10:04:29.413Z,1672
2019-04-19T10:05:09.668Z,1680
2019-04-19T10:05:49.142Z,1672
2019-04-19T10:06:30.874Z,1668
2019-04-19T10:07:11.103Z,1664
2019-04-19T10:07:50.681Z,1664
2019-04-19T10:08:32.100Z,1664
2019-04-19T10:09:16.318Z,1664
2019-04-19T10:10:02.531Z,1664
2019-04-19T10:10:33.825Z,1656
2019-04-19T10:11:14.797Z,1656
2019-04-19T10:11:57.201Z,1652
2019-04-19T10:12:35.653Z,1652
2019-04-19T10:13:16.089Z,1656
2019-04-19T10:13:56.019Z,1652
2019-04-19T10:14:37.437Z,1652
2019-04-19T10:15:18.126Z,1652
2019-04-19T10:15:58.536Z,1648
2019-04-19T10:16:38.592Z,1648
2019-04-19T10:17:18.991Z,1648
2019-04-19T10:18:00.518Z,1644
2019-04-19T10:18:49.047Z,1636
2019-04-19T10:19:20.970Z,1628
2019-04-19T10:20:00.923Z,1632
2019-04-19T10:20:42.661Z,1624
2019-04-19T10:21:27.336Z,1616
2019-04-19T10:22:04.307Z,1620
2019-04-19T10:22:43.563Z,1624
2019-04-19T10:23:24.913Z,1620
2019-04-19T10:24:07.844Z,1616
2019-04-19T10:24:45.232Z,1616
2019-04-19T10:25:27.642Z,1612